sensor_id;sensor_type;location;lat;lon;timestamp;pressure;altitude;pressure_sealevel;temperature;humidity
49529;BME280;35423;37.320;-121.762;2023-12-20T00:02:13;99089.04;;;22.58;34.38
49529;BME280;35423;37.320;-121.762;2023-12-20T00:04:40;99085.72;;;22.80;34.09
49529;BME280;35423;37.320;-121.762;2023-12-20T00:07:06;99086.54;;;22.61;33.84
49529;BME280;35423;37.320;-121.762;2023-12-20T00:09:31;99089.57;;;22.71;33.72
49529;BME280;35423;37.320;-121.762;2023-12-20T00:12:07;99091.89;;;22.89;33.27
49529;BME280;35423;37.320;-121.762;2023-12-20T00:14:33;99089.76;;;22.97;33.08
49529;BME280;35423;37.320;-121.762;2023-12-20T00:16:59;99082.63;;;23.29;32.59
49529;BME280;35423;37.320;-121.762;2023-12-20T00:19:24;99076.40;;;23.35;32.36
49529;BME280;35423;37.320;-121.762;2023-12-20T00:21:57;99080.49;;;23.23;31.83
49529;BME280;35423;37.320;-121.762;2023-12-20T00:24:22;99076.34;;;23.47;31.20
49529;BME280;35423;37.320;-121.762;2023-12-20T00:26:49;99074.95;;;23.59;30.48
49529;BME280;35423;37.320;-121.762;2023-12-20T00:29:15;99070.83;;;23.51;30.29
49529;BME280;35423;37.320;-121.762;2023-12-20T00:31:40;99061.07;;;23.66;29.78
49529;BME280;35423;37.320;-121.762;2023-12-20T00:34:08;99053.23;;;23.32;29.56
49529;BME280;35423;37.320;-121.762;2023-12-20T00:36:41;99047.89;;;23.88;29.24
49529;BME280;35423;37.320;-121.762;2023-12-20T00:39:06;99048.85;;;23.86;29.28
49529;BME280;35423;37.320;-121.762;2023-12-20T00:41:32;99050.29;;;23.69;29.50
49529;BME280;35423;37.320;-121.762;2023-12-20T00:44:02;99054.53;;;23.62;29.74
49529;BME280;35423;37.320;-121.762;2023-12-20T00:46:26;99050.88;;;23.40;30.05
49529;BME280;35423;37.320;-121.762;2023-12-20T00:48:55;99052.61;;;23.70;30.18
49529;BME280;35423;37.320;-121.762;2023-12-20T00:51:19;99055.44;;;23.61;30.30
49529;BME280;35423;37.320;-121.762;2023-12-20T00:53:47;99073.37;;;22.74;30.49
49529;BME280;35423;37.320;-121.762;2023-12-20T00:56:12;99071.15;;;23.10;30.65
49529;BME280;35423;37.320;-121.762;2023-12-20T00:58:38;99067.86;;;22.84;30.72
49529;BME280;35423;37.320;-121.762;2023-12-20T01:01:04;99067.79;;;23.20;30.96
49529;BME280;35423;37.320;-121.762;2023-12-20T01:03:29;99072.33;;;23.20;31.07
49529;BME280;35423;37.320;-121.762;2023-12-20T01:05:58;99072.98;;;22.92;31.12
49529;BME280;35423;37.320;-121.762;2023-12-20T01:08:24;99076.38;;;23.28;30.83
49529;BME280;35423;37.320;-121.762;2023-12-20T01:10:54;99078.83;;;22.91;31.07
49529;BME280;35423;37.320;-121.762;2023-12-20T01:13:17;99082.40;;;22.83;31.31
49529;BME280;35423;37.320;-121.762;2023-12-20T01:15:44;99087.64;;;23.18;31.27
49529;BME280;35423;37.320;-121.762;2023-12-20T01:18:09;99084.20;;;22.86;31.34
49529;BME280;35423;37.320;-121.762;2023-12-20T01:20:42;99089.47;;;23.14;31.24
49529;BME280;35423;37.320;-121.762;2023-12-20T01:23:09;99085.40;;;23.10;31.34
49529;BME280;35423;37.320;-121.762;2023-12-20T01:25:35;99087.27;;;22.81;31.39
49529;BME280;35423;37.320;-121.762;2023-12-20T01:28:03;99077.88;;;22.77;31.52
49529;BME280;35423;37.320;-121.762;2023-12-20T01:30:29;99075.88;;;22.95;31.60
49529;BME280;35423;37.320;-121.762;2023-12-20T01:33:04;99070.88;;;22.83;31.72
49529;BME280;35423;37.320;-121.762;2023-12-20T01:35:23;99070.65;;;22.78;31.83
49529;BME280;35423;37.320;-121.762;2023-12-20T01:37:54;99071.35;;;22.70;32.03
49529;BME280;35423;37.320;-121.762;2023-12-20T01:40:18;99079.36;;;22.63;32.20
49529;BME280;35423;37.320;-121.762;2023-12-20T01:42:45;99081.32;;;22.59;32.34
49529;BME280;35423;37.320;-121.762;2023-12-20T01:45:12;99082.79;;;22.27;32.46
49529;BME280;35423;37.320;-121.762;2023-12-20T01:47:39;99082.83;;;22.44;32.62
49529;BME280;35423;37.320;-121.762;2023-12-20T01:50:07;99086.05;;;22.43;32.64
49529;BME280;35423;37.320;-121.762;2023-12-20T01:52:33;99088.71;;;22.41;32.61
49529;BME280;35423;37.320;-121.762;2023-12-20T01:54:58;99088.99;;;22.42;32.61
49529;BME280;35423;37.320;-121.762;2023-12-20T01:57:26;99091.51;;;22.42;32.62
49529;BME280;35423;37.320;-121.762;2023-12-20T01:59:54;99090.76;;;22.15;32.58
49529;BME280;35423;37.320;-121.762;2023-12-20T02:02:19;99088.57;;;22.44;32.53
49529;BME280;35423;37.320;-121.762;2023-12-20T02:04:50;99088.47;;;22.47;32.43
49529;BME280;35423;37.320;-121.762;2023-12-20T02:07:14;99090.20;;;22.36;32.52
49529;BME280;35423;37.320;-121.762;2023-12-20T02:09:41;99090.25;;;22.33;32.46
49529;BME280;35423;37.320;-121.762;2023-12-20T02:12:09;99095.96;;;22.52;32.53
49529;BME280;35423;37.320;-121.762;2023-12-20T02:14:36;99094.66;;;22.53;32.53
49529;BME280;35423;37.320;-121.762;2023-12-20T02:17:02;99092.60;;;22.25;32.64
49529;BME280;35423;37.320;-121.762;2023-12-20T02:19:27;99101.50;;;22.22;32.71
49529;BME280;35423;37.320;-121.762;2023-12-20T02:22:06;99100.73;;;22.23;32.70
49529;BME280;35423;37.320;-121.762;2023-12-20T02:24:24;99096.98;;;22.18;32.84
49529;BME280;35423;37.320;-121.762;2023-12-20T02:26:51;99095.21;;;22.19;32.82
49529;BME280;35423;37.320;-121.762;2023-12-20T02:29:19;99097.34;;;22.10;32.93
49529;BME280;35423;37.320;-121.762;2023-12-20T02:31:48;99098.03;;;22.05;33.01
49529;BME280;35423;37.320;-121.762;2023-12-20T02:34:17;99094.89;;;22.31;32.98
49529;BME280;35423;37.320;-121.762;2023-12-20T02:36:44;99097.33;;;21.95;33.01
49529;BME280;35423;37.320;-121.762;2023-12-20T02:39:09;99104.00;;;21.91;33.16
49529;BME280;35423;37.320;-121.762;2023-12-20T02:41:34;99104.53;;;22.15;33.20
49529;BME280;35423;37.320;-121.762;2023-12-20T02:44:00;99106.24;;;21.96;33.17
49529;BME280;35423;37.320;-121.762;2023-12-20T02:46:25;99096.43;;;22.18;33.23
49529;BME280;35423;37.320;-121.762;2023-12-20T02:48:54;99097.08;;;21.67;33.15
49529;BME280;35423;37.320;-121.762;2023-12-20T02:51:21;99102.22;;;22.18;33.07
49529;BME280;35423;37.320;-121.762;2023-12-20T02:53:47;99097.36;;;21.98;32.93
49529;BME280;35423;37.320;-121.762;2023-12-20T02:56:12;99095.19;;;21.97;32.88
49529;BME280;35423;37.320;-121.762;2023-12-20T02:58:43;99090.78;;;22.35;32.88
49529;BME280;35423;37.320;-121.762;2023-12-20T03:01:08;99086.80;;;21.85;32.90
49529;BME280;35423;37.320;-121.762;2023-12-20T03:03:36;99085.60;;;22.13;32.79
49529;BME280;35423;37.320;-121.762;2023-12-20T03:06:03;99083.35;;;21.89;32.70
49529;BME280;35423;37.320;-121.762;2023-12-20T03:08:28;99080.87;;;22.21;32.75
49529;BME280;35423;37.320;-121.762;2023-12-20T03:11:00;99079.25;;;21.67;32.88
49529;BME280;35423;37.320;-121.762;2023-12-20T03:13:26;99077.80;;;21.67;32.93
49529;BME280;35423;37.320;-121.762;2023-12-20T03:16:01;99081.97;;;21.89;32.93
49529;BME280;35423;37.320;-121.762;2023-12-20T03:18:27;99084.13;;;21.88;33.00
49529;BME280;35423;37.320;-121.762;2023-12-20T03:20:53;99082.92;;;21.60;33.07
49529;BME280;35423;37.320;-121.762;2023-12-20T03:23:20;99088.67;;;22.03;33.09
49529;BME280;35423;37.320;-121.762;2023-12-20T03:25:48;99084.67;;;21.75;33.18
49529;BME280;35423;37.320;-121.762;2023-12-20T03:28:16;99086.34;;;21.83;33.16
49529;BME280;35423;37.320;-121.762;2023-12-20T03:30:38;99080.98;;;21.78;32.96
49529;BME280;35423;37.320;-121.762;2023-12-20T03:33:06;99080.34;;;21.93;32.74
49529;BME280;35423;37.320;-121.762;2023-12-20T03:35:33;99080.65;;;22.19;32.68
49529;BME280;35423;37.320;-121.762;2023-12-20T03:37:59;99082.16;;;21.84;32.82
49529;BME280;35423;37.320;-121.762;2023-12-20T03:40:26;99086.77;;;22.16;32.97
49529;BME280;35423;37.320;-121.762;2023-12-20T03:42:57;99085.39;;;22.07;33.13
49529;BME280;35423;37.320;-121.762;2023-12-20T03:45:22;99081.39;;;21.49;33.28
49529;BME280;35423;37.320;-121.762;2023-12-20T03:47:50;99088.77;;;21.93;33.37
49529;BME280;35423;37.320;-121.762;2023-12-20T03:50:14;99093.50;;;21.79;33.62
49529;BME280;35423;37.320;-121.762;2023-12-20T03:52:47;99091.98;;;21.79;33.72
49529;BME280;35423;37.320;-121.762;2023-12-20T03:55:19;99086.94;;;21.55;33.77
49529;BME280;35423;37.320;-121.762;2023-12-20T03:57:40;99087.53;;;21.80;33.75
49529;BME280;35423;37.320;-121.762;2023-12-20T04:00:02;99077.89;;;21.75;33.88
49529;BME280;35423;37.320;-121.762;2023-12-20T04:02:28;99077.75;;;21.56;33.86
49529;BME280;35423;37.320;-121.762;2023-12-20T04:04:53;99080.10;;;21.74;33.95
49529;BME280;35423;37.320;-121.762;2023-12-20T04:07:18;99079.66;;;21.69;34.03
49529;BME280;35423;37.320;-121.762;2023-12-20T04:09:44;99074.05;;;21.68;34.07
49529;BME280;35423;37.320;-121.762;2023-12-20T04:12:12;99073.66;;;21.97;34.06
49529;BME280;35423;37.320;-121.762;2023-12-20T04:14:39;99075.81;;;21.71;34.12
49529;BME280;35423;37.320;-121.762;2023-12-20T04:17:05;99073.07;;;21.28;34.16
49529;BME280;35423;37.320;-121.762;2023-12-20T04:19:31;99066.52;;;21.74;34.22
49529;BME280;35423;37.320;-121.762;2023-12-20T04:21:55;99063.66;;;21.55;34.16
49529;BME280;35423;37.320;-121.762;2023-12-20T04:24:23;99068.16;;;21.81;34.18
49529;BME280;35423;37.320;-121.762;2023-12-20T04:26:50;99070.09;;;21.85;34.22
49529;BME280;35423;37.320;-121.762;2023-12-20T04:29:17;99083.25;;;21.60;34.29
49529;BME280;35423;37.320;-121.762;2023-12-20T04:31:43;99084.34;;;21.57;34.40
49529;BME280;35423;37.320;-121.762;2023-12-20T04:34:11;99084.27;;;21.76;34.54
49529;BME280;35423;37.320;-121.762;2023-12-20T04:36:38;99082.80;;;21.74;34.64
49529;BME280;35423;37.320;-121.762;2023-12-20T04:39:03;99093.56;;;21.73;34.74
49529;BME280;35423;37.320;-121.762;2023-12-20T04:41:31;99092.54;;;21.75;34.73
49529;BME280;35423;37.320;-121.762;2023-12-20T04:43:57;99092.68;;;21.34;34.68
49529;BME280;35423;37.320;-121.762;2023-12-20T04:46:25;99092.17;;;21.83;34.67
49529;BME280;35423;37.320;-121.762;2023-12-20T04:48:54;99094.05;;;21.57;34.67
49529;BME280;35423;37.320;-121.762;2023-12-20T04:51:19;99096.93;;;21.81;34.67
49529;BME280;35423;37.320;-121.762;2023-12-20T04:53:47;99095.18;;;21.79;34.71
49529;BME280;35423;37.320;-121.762;2023-12-20T04:56:12;99094.83;;;21.73;34.86
49529;BME280;35423;37.320;-121.762;2023-12-20T04:58:37;99095.57;;;21.70;34.97
49529;BME280;35423;37.320;-121.762;2023-12-20T05:01:06;99101.06;;;21.72;34.98
49529;BME280;35423;37.320;-121.762;2023-12-20T05:03:32;99103.69;;;21.77;34.94
49529;BME280;35423;37.320;-121.762;2023-12-20T05:05:57;99105.28;;;21.76;34.98
49529;BME280;35423;37.320;-121.762;2023-12-20T05:08:25;99107.79;;;21.78;34.94
49529;BME280;35423;37.320;-121.762;2023-12-20T05:10:57;99106.90;;;21.53;34.98
49529;BME280;35423;37.320;-121.762;2023-12-20T05:13:23;99106.67;;;21.74;35.04
49529;BME280;35423;37.320;-121.762;2023-12-20T05:15:48;99104.58;;;21.69;35.12
49529;BME280;35423;37.320;-121.762;2023-12-20T05:18:15;99108.36;;;21.43;35.21
49529;BME280;35423;37.320;-121.762;2023-12-20T05:20:46;99110.82;;;21.43;35.26
49529;BME280;35423;37.320;-121.762;2023-12-20T05:23:11;99108.13;;;21.59;35.33
49529;BME280;35423;37.320;-121.762;2023-12-20T05:25:36;99101.85;;;21.85;35.32
49529;BME280;35423;37.320;-121.762;2023-12-20T05:28:02;99100.03;;;21.31;35.37
49529;BME280;35423;37.320;-121.762;2023-12-20T05:30:27;99091.23;;;21.52;35.33
49529;BME280;35423;37.320;-121.762;2023-12-20T05:32:58;99086.12;;;21.51;35.32
49529;BME280;35423;37.320;-121.762;2023-12-20T05:35:25;99083.66;;;21.60;35.11
49529;BME280;35423;37.320;-121.762;2023-12-20T05:37:50;99081.39;;;21.60;35.03
49529;BME280;35423;37.320;-121.762;2023-12-20T05:40:16;99080.82;;;21.86;34.90
49529;BME280;35423;37.320;-121.762;2023-12-20T05:42:41;99074.94;;;21.60;34.88
49529;BME280;35423;37.320;-121.762;2023-12-20T05:45:07;99075.14;;;21.44;34.68
49529;BME280;35423;37.320;-121.762;2023-12-20T05:47:35;99079.85;;;21.93;34.65
49529;BME280;35423;37.320;-121.762;2023-12-20T05:50:02;99084.43;;;21.49;34.49
49529;BME280;35423;37.320;-121.762;2023-12-20T05:52:28;99090.23;;;21.70;34.54
49529;BME280;35423;37.320;-121.762;2023-12-20T05:54:55;99081.75;;;21.29;34.52
49529;BME280;35423;37.320;-121.762;2023-12-20T05:57:23;99079.36;;;21.68;34.65
49529;BME280;35423;37.320;-121.762;2023-12-20T05:59:48;99074.81;;;21.66;34.75
49529;BME280;35423;37.320;-121.762;2023-12-20T06:02:14;99072.00;;;21.65;34.78
49529;BME280;35423;37.320;-121.762;2023-12-20T06:04:43;99061.75;;;21.65;34.76
49529;BME280;35423;37.320;-121.762;2023-12-20T06:07:08;99061.36;;;21.67;34.70
49529;BME280;35423;37.320;-121.762;2023-12-20T06:09:34;99059.78;;;21.64;34.57
49529;BME280;35423;37.320;-121.762;2023-12-20T06:12:02;99058.76;;;21.42;34.36
49529;BME280;35423;37.320;-121.762;2023-12-20T06:14:27;99060.68;;;21.42;34.34
49529;BME280;35423;37.320;-121.762;2023-12-20T06:16:53;99064.05;;;21.14;34.26
49529;BME280;35423;37.320;-121.762;2023-12-20T06:19:20;99067.86;;;21.59;34.09
49529;BME280;35423;37.320;-121.762;2023-12-20T06:21:46;99059.21;;;21.58;34.09
49529;BME280;35423;37.320;-121.762;2023-12-20T06:24:12;99070.24;;;21.18;33.89
49529;BME280;35423;37.320;-121.762;2023-12-20T06:26:48;99072.39;;;21.58;33.73
49529;BME280;35423;37.320;-121.762;2023-12-20T06:29:13;99066.76;;;21.43;33.55
49529;BME280;35423;37.320;-121.762;2023-12-20T06:31:43;99059.44;;;21.52;33.26
49529;BME280;35423;37.320;-121.762;2023-12-20T06:34:08;99052.34;;;21.69;33.24
49529;BME280;35423;37.320;-121.762;2023-12-20T06:36:35;99050.18;;;21.48;32.88
49529;BME280;35423;37.320;-121.762;2023-12-20T06:39:02;99043.71;;;21.67;32.92
49529;BME280;35423;37.320;-121.762;2023-12-20T06:41:28;99049.14;;;21.36;32.87
49529;BME280;35423;37.320;-121.762;2023-12-20T06:43:59;99050.29;;;21.42;32.64
49529;BME280;35423;37.320;-121.762;2023-12-20T06:46:27;99052.12;;;21.33;32.78
49529;BME280;35423;37.320;-121.762;2023-12-20T06:48:53;99050.44;;;21.52;32.78
49529;BME280;35423;37.320;-121.762;2023-12-20T06:51:17;99045.95;;;21.21;32.55
49529;BME280;35423;37.320;-121.762;2023-12-20T06:53:41;99049.17;;;21.59;32.36
49529;BME280;35423;37.320;-121.762;2023-12-20T06:56:10;99048.06;;;21.34;32.37
49529;BME280;35423;37.320;-121.762;2023-12-20T06:58:34;99045.61;;;21.73;32.43
49529;BME280;35423;37.320;-121.762;2023-12-20T07:03:32;99044.49;;;21.17;32.43
49529;BME280;35423;37.320;-121.762;2023-12-20T07:06:00;99047.69;;;21.30;32.47
49529;BME280;35423;37.320;-121.762;2023-12-20T07:08:26;99045.24;;;21.29;32.43
49529;BME280;35423;37.320;-121.762;2023-12-20T07:10:53;99039.72;;;21.52;32.35
49529;BME280;35423;37.320;-121.762;2023-12-20T07:13:17;99035.59;;;21.26;32.22
49529;BME280;35423;37.320;-121.762;2023-12-20T07:15:45;99022.11;;;21.45;32.28
49529;BME280;35423;37.320;-121.762;2023-12-20T07:18:11;99011.97;;;21.25;32.09
49529;BME280;35423;37.320;-121.762;2023-12-20T07:20:37;99007.38;;;21.23;31.98
49529;BME280;35423;37.320;-121.762;2023-12-20T07:23:04;98997.47;;;21.50;31.80
49529;BME280;35423;37.320;-121.762;2023-12-20T07:25:30;98988.44;;;21.28;31.65
49529;BME280;35423;37.320;-121.762;2023-12-20T07:27:55;98988.90;;;21.24;31.50
49529;BME280;35423;37.320;-121.762;2023-12-20T07:30:23;98985.27;;;21.26;31.36
49529;BME280;35423;37.320;-121.762;2023-12-20T07:32:52;98983.13;;;21.53;31.24
49529;BME280;35423;37.320;-121.762;2023-12-20T07:35:18;98982.36;;;21.55;31.08
49529;BME280;35423;37.320;-121.762;2023-12-20T07:37:44;98978.02;;;21.52;30.99
49529;BME280;35423;37.320;-121.762;2023-12-20T07:40:09;98981.14;;;21.21;31.00
49529;BME280;35423;37.320;-121.762;2023-12-20T07:42:35;98983.23;;;20.99;31.09
49529;BME280;35423;37.320;-121.762;2023-12-20T07:45:00;98985.11;;;21.22;31.02
49529;BME280;35423;37.320;-121.762;2023-12-20T07:47:26;98984.77;;;21.60;30.81
49529;BME280;35423;37.320;-121.762;2023-12-20T07:49:51;98976.05;;;21.58;30.75
49529;BME280;35423;37.320;-121.762;2023-12-20T07:52:18;98974.20;;;21.30;30.72
49529;BME280;35423;37.320;-121.762;2023-12-20T07:54:42;98971.30;;;21.86;30.51
49529;BME280;35423;37.320;-121.762;2023-12-20T07:57:10;98963.00;;;21.12;30.50
49529;BME280;35423;37.320;-121.762;2023-12-20T07:59:37;98962.30;;;21.42;30.10
49529;BME280;35423;37.320;-121.762;2023-12-20T08:02:05;98957.29;;;21.49;30.22
49529;BME280;35423;37.320;-121.762;2023-12-20T08:04:35;98955.87;;;21.51;30.11
49529;BME280;35423;37.320;-121.762;2023-12-20T08:06:56;98956.74;;;21.26;30.20
49529;BME280;35423;37.320;-121.762;2023-12-20T08:09:22;98955.93;;;21.46;30.13
49529;BME280;35423;37.320;-121.762;2023-12-20T08:11:50;98951.48;;;21.47;30.43
49529;BME280;35423;37.320;-121.762;2023-12-20T08:14:16;98951.71;;;21.52;30.06
49529;BME280;35423;37.320;-121.762;2023-12-20T08:16:42;98961.11;;;21.53;30.02
49529;BME280;35423;37.320;-121.762;2023-12-20T08:19:09;98961.04;;;21.42;29.68
49529;BME280;35423;37.320;-121.762;2023-12-20T08:21:34;98959.48;;;21.58;29.64
49529;BME280;35423;37.320;-121.762;2023-12-20T08:24:00;98948.83;;;21.63;29.64
49529;BME280;35423;37.320;-121.762;2023-12-20T08:26:26;98954.86;;;21.91;29.41
49529;BME280;35423;37.320;-121.762;2023-12-20T08:28:54;98950.86;;;21.38;29.47
49529;BME280;35423;37.320;-121.762;2023-12-20T08:31:19;98957.29;;;21.61;29.40
49529;BME280;35423;37.320;-121.762;2023-12-20T08:33:47;98956.92;;;21.60;29.46
49529;BME280;35423;37.320;-121.762;2023-12-20T08:36:12;98956.09;;;21.57;29.64
49529;BME280;35423;37.320;-121.762;2023-12-20T08:38:40;98956.09;;;21.56;29.70
49529;BME280;35423;37.320;-121.762;2023-12-20T08:41:07;98949.10;;;21.81;29.75
49529;BME280;35423;37.320;-121.762;2023-12-20T08:43:34;98948.50;;;21.53;29.66
49529;BME280;35423;37.320;-121.762;2023-12-20T08:45:58;98943.97;;;21.30;29.68
49529;BME280;35423;37.320;-121.762;2023-12-20T08:48:27;98939.53;;;21.43;29.76
49529;BME280;35423;37.320;-121.762;2023-12-20T08:50:52;98938.76;;;21.44;29.79
49529;BME280;35423;37.320;-121.762;2023-12-20T08:53:17;98939.72;;;21.40;29.89
49529;BME280;35423;37.320;-121.762;2023-12-20T08:55:44;98939.13;;;21.62;29.81
49529;BME280;35423;37.320;-121.762;2023-12-20T08:58:17;98934.82;;;21.61;29.87
49529;BME280;35423;37.320;-121.762;2023-12-20T09:00:43;98921.40;;;21.36;29.80
49529;BME280;35423;37.320;-121.762;2023-12-20T09:03:10;98916.93;;;21.41;29.61
49529;BME280;35423;37.320;-121.762;2023-12-20T09:05:37;98921.53;;;21.37;29.57
49529;BME280;35423;37.320;-121.762;2023-12-20T09:08:04;98921.17;;;21.36;29.68
49529;BME280;35423;37.320;-121.762;2023-12-20T09:10:30;98918.51;;;21.45;29.48
49529;BME280;35423;37.320;-121.762;2023-12-20T09:13:01;98916.85;;;21.40;29.54
49529;BME280;35423;37.320;-121.762;2023-12-20T09:15:28;98923.09;;;21.43;29.52
49529;BME280;35423;37.320;-121.762;2023-12-20T09:17:55;98925.24;;;21.46;29.54
49529;BME280;35423;37.320;-121.762;2023-12-20T09:20:22;98926.84;;;21.40;29.73
49529;BME280;35423;37.320;-121.762;2023-12-20T09:22:47;98915.75;;;21.67;29.88
49529;BME280;35423;37.320;-121.762;2023-12-20T09:25:13;98920.15;;;21.43;29.77
49529;BME280;35423;37.320;-121.762;2023-12-20T09:27:40;98920.08;;;21.23;29.83
49529;BME280;35423;37.320;-121.762;2023-12-20T09:30:04;98918.53;;;21.69;29.58
49529;BME280;35423;37.320;-121.762;2023-12-20T09:32:30;98913.77;;;21.38;29.49
49529;BME280;35423;37.320;-121.762;2023-12-20T09:34:58;98922.40;;;21.56;29.42
49529;BME280;35423;37.320;-121.762;2023-12-20T09:37:27;98919.59;;;21.83;29.45
49529;BME280;35423;37.320;-121.762;2023-12-20T09:39:57;98919.28;;;21.99;29.59
49529;BME280;35423;37.320;-121.762;2023-12-20T09:42:34;98918.03;;;21.80;29.86
49529;BME280;35423;37.320;-121.762;2023-12-20T09:44:52;98919.61;;;21.69;30.06
49529;BME280;35423;37.320;-121.762;2023-12-20T09:47:16;98923.54;;;21.56;30.27
49529;BME280;35423;37.320;-121.762;2023-12-20T09:49:44;98920.41;;;21.50;30.34
49529;BME280;35423;37.320;-121.762;2023-12-20T09:52:10;98926.66;;;21.47;30.38
49529;BME280;35423;37.320;-121.762;2023-12-20T09:54:34;98926.22;;;21.41;30.54
49529;BME280;35423;37.320;-121.762;2023-12-20T09:57:05;98931.53;;;21.21;30.62
49529;BME280;35423;37.320;-121.762;2023-12-20T09:59:33;98937.44;;;21.70;30.60
49529;BME280;35423;37.320;-121.762;2023-12-20T10:02:02;98949.86;;;21.47;30.72
49529;BME280;35423;37.320;-121.762;2023-12-20T10:04:25;98948.24;;;21.66;30.88
49529;BME280;35423;37.320;-121.762;2023-12-20T10:07:03;98947.63;;;21.42;30.93
49529;BME280;35423;37.320;-121.762;2023-12-20T10:09:29;98951.45;;;21.46;31.03
49529;BME280;35423;37.320;-121.762;2023-12-20T10:11:55;98953.84;;;21.54;31.03
49529;BME280;35423;37.320;-121.762;2023-12-20T10:14:22;98953.92;;;21.57;31.07
49529;BME280;35423;37.320;-121.762;2023-12-20T10:16:46;98953.00;;;21.59;31.14
49529;BME280;35423;37.320;-121.762;2023-12-20T10:19:17;98951.16;;;21.37;31.16
49529;BME280;35423;37.320;-121.762;2023-12-20T10:21:43;98949.43;;;21.55;31.22
49529;BME280;35423;37.320;-121.762;2023-12-20T10:24:09;98943.41;;;21.51;31.31
49529;BME280;35423;37.320;-121.762;2023-12-20T10:26:34;98938.10;;;21.49;31.41
49529;BME280;35423;37.320;-121.762;2023-12-20T10:29:01;98940.57;;;21.49;31.45
49529;BME280;35423;37.320;-121.762;2023-12-20T10:31:28;98943.12;;;21.44;31.54
49529;BME280;35423;37.320;-121.762;2023-12-20T10:33:59;98944.96;;;21.42;31.63
49529;BME280;35423;37.320;-121.762;2023-12-20T10:36:24;98942.18;;;21.46;31.65
49529;BME280;35423;37.320;-121.762;2023-12-20T10:38:51;98941.93;;;21.45;31.69
49529;BME280;35423;37.320;-121.762;2023-12-20T10:41:15;98939.87;;;21.41;31.77
49529;BME280;35423;37.320;-121.762;2023-12-20T10:43:41;98932.61;;;21.63;31.88
49529;BME280;35423;37.320;-121.762;2023-12-20T10:46:12;98934.38;;;21.37;31.98
49529;BME280;35423;37.320;-121.762;2023-12-20T10:48:40;98937.32;;;21.38;31.98
49529;BME280;35423;37.320;-121.762;2023-12-20T10:51:05;98934.16;;;21.36;32.00
49529;BME280;35423;37.320;-121.762;2023-12-20T10:53:34;98932.66;;;21.13;32.12
49529;BME280;35423;37.320;-121.762;2023-12-20T10:56:01;98923.63;;;21.32;31.66
49529;BME280;35423;37.320;-121.762;2023-12-20T10:58:30;98921.48;;;22.10;31.53
49529;BME280;35423;37.320;-121.762;2023-12-20T11:01:02;98906.00;;;21.14;31.76
49529;BME280;35423;37.320;-121.762;2023-12-20T11:03:26;98893.41;;;21.54;31.80
49529;BME280;35423;37.320;-121.762;2023-12-20T11:06:02;98897.32;;;21.51;31.77
49529;BME280;35423;37.320;-121.762;2023-12-20T11:08:28;98900.08;;;21.50;31.76
49529;BME280;35423;37.320;-121.762;2023-12-20T11:10:55;98909.28;;;21.52;31.76
49529;BME280;35423;37.320;-121.762;2023-12-20T11:13:20;98914.63;;;21.50;31.90
49529;BME280;35423;37.320;-121.762;2023-12-20T11:15:40;98918.67;;;21.79;31.83
49529;BME280;35423;37.320;-121.762;2023-12-20T11:18:07;98923.51;;;21.56;31.87
49529;BME280;35423;37.320;-121.762;2023-12-20T11:20:38;98925.25;;;21.79;31.83
49529;BME280;35423;37.320;-121.762;2023-12-20T11:23:00;98925.89;;;21.24;31.94
49529;BME280;35423;37.320;-121.762;2023-12-20T11:25:28;98926.59;;;21.88;31.85
49529;BME280;35423;37.320;-121.762;2023-12-20T11:30:21;98921.23;;;21.56;32.54
49529;BME280;35423;37.320;-121.762;2023-12-20T11:32:52;98918.60;;;21.49;32.75
49529;BME280;35423;37.320;-121.762;2023-12-20T11:35:18;98918.65;;;21.43;32.99
49529;BME280;35423;37.320;-121.762;2023-12-20T11:37:39;98918.75;;;21.43;33.01
49529;BME280;35423;37.320;-121.762;2023-12-20T11:40:08;98917.74;;;21.46;33.00
49529;BME280;35423;37.320;-121.762;2023-12-20T11:42:36;98918.87;;;21.23;33.01
49529;BME280;35423;37.320;-121.762;2023-12-20T11:45:04;98919.72;;;21.50;32.93
49529;BME280;35423;37.320;-121.762;2023-12-20T11:47:26;98915.95;;;21.48;32.90
49529;BME280;35423;37.320;-121.762;2023-12-20T11:49:52;98911.65;;;21.72;32.83
49529;BME280;35423;37.320;-121.762;2023-12-20T11:52:17;98904.84;;;21.20;32.77
49529;BME280;35423;37.320;-121.762;2023-12-20T11:54:44;98898.35;;;21.50;32.66
49529;BME280;35423;37.320;-121.762;2023-12-20T11:57:12;98897.78;;;21.24;32.56
49529;BME280;35423;37.320;-121.762;2023-12-20T11:59:37;98886.63;;;21.30;32.40
49529;BME280;35423;37.320;-121.762;2023-12-20T12:02:03;98877.20;;;21.35;32.30
49529;BME280;35423;37.320;-121.762;2023-12-20T12:04:28;98880.79;;;21.53;32.44
49529;BME280;35423;37.320;-121.762;2023-12-20T12:06:55;98877.15;;;21.25;32.38
49529;BME280;35423;37.320;-121.762;2023-12-20T12:09:28;98876.98;;;21.05;32.37
49529;BME280;35423;37.320;-121.762;2023-12-20T12:11:53;98877.00;;;21.63;32.21
49529;BME280;35423;37.320;-121.762;2023-12-20T12:14:20;98879.13;;;21.65;32.19
49529;BME280;35423;37.320;-121.762;2023-12-20T12:16:47;98883.99;;;21.39;32.21
49529;BME280;35423;37.320;-121.762;2023-12-20T12:19:21;98890.24;;;21.49;32.05
49529;BME280;35423;37.320;-121.762;2023-12-20T12:21:41;98889.60;;;21.94;32.11
49529;BME280;35423;37.320;-121.762;2023-12-20T12:24:09;98886.43;;;21.67;32.18
49529;BME280;35423;37.320;-121.762;2023-12-20T12:26:34;98884.29;;;21.42;32.17
49529;BME280;35423;37.320;-121.762;2023-12-20T12:29:00;98886.02;;;21.13;32.01
49529;BME280;35423;37.320;-121.762;2023-12-20T12:31:25;98882.08;;;21.58;32.02
49529;BME280;35423;37.320;-121.762;2023-12-20T12:33:52;98882.35;;;21.55;32.09